Time;durP1;ratioP1;P1;durP2;ratioP2;P2;SDS_P1;SDS_P2;PMS_P1;PMS_P2;Temp;Humidity;BMP_temperature;BMP_pressure;BME280_temperature;BME280_humidity;BME280_pressure;Samples;Min_cycle;Max_cycle;Signal;HPM_P1;HPM_P2
2022/11/23 00:00:32;;;;;;;18.35;12.27;;;256.70;2252.80;;;;;;5010238;28;20381;-59
2022/11/23 00:02:59;;;;;;;16.20;11.07;;;256.70;2252.80;;;;;;5009479;28;20061;-60
2022/11/23 00:05:26;;;;;;;18.52;11.57;;;256.60;2252.80;;;;;;5010183;28;20053;-61
2022/11/23 00:07:52;;;;;;;52.60;26.90;;;256.60;2252.80;;;;;;5010192;28;20077;-61
2022/11/23 00:10:17;;;;;;;33.15;17.83;;;256.60;2252.80;;;;;;5010421;28;20042;-61
2022/11/23 00:12:43;;;;;;;26.10;16.33;;;256.70;2252.80;;;;;;5010124;28;20041;-62
2022/11/23 00:15:12;;;;;;;41.38;24.52;;;256.80;2252.80;;;;;;5010224;28;20527;-62
2022/11/23 00:17:38;;;;;;;40.80;23.30;;;256.80;2252.80;;;;;;5010224;28;20041;-58
2022/11/23 00:20:05;;;;;;;22.33;15.05;;;256.80;2252.80;;;;;;5010002;28;20044;-62
2022/11/23 00:22:30;;;;;;;30.00;19.60;;;256.80;2252.80;;;;;;5009901;28;20032;-59
2022/11/23 00:24:56;;;;;;;20.35;12.75;;;256.80;2252.80;;;;;;5010305;28;20163;-59
2022/11/23 00:27:22;;;;;;;25.65;14.55;;;256.70;2252.80;;;;;;5010008;28;20030;-61
2022/11/23 00:29:47;;;;;;;18.52;11.90;;;256.60;2252.80;;;;;;5010237;28;20443;-62
2022/11/23 00:32:13;;;;;;;39.53;18.83;;;256.60;2252.80;;;;;;5010054;28;20096;-62
2022/11/23 00:34:39;;;;;;;34.47;19.63;;;256.60;2252.80;;;;;;5010226;28;20388;-58
2022/11/23 00:37:05;;;;;;;28.33;14.55;;;256.60;2252.80;;;;;;5009872;28;20029;-59
2022/11/23 00:39:30;;;;;;;20.10;13.07;;;256.50;2252.80;;;;;;5009738;28;20022;-59
2022/11/23 00:41:56;;;;;;;30.45;17.83;;;256.50;2252.80;;;;;;5010130;28;20109;-59
2022/11/23 00:44:22;;;;;;;27.67;13.93;;;256.50;2252.80;;;;;;5009844;28;20029;-60
2022/11/23 00:46:48;;;;;;;34.03;22.02;;;256.50;2252.80;;;;;;5009950;28;20387;-59
2022/11/23 00:49:13;;;;;;;30.20;18.98;;;256.40;2252.80;;;;;;5009901;28;20032;-60
2022/11/23 00:51:39;;;;;;;19.00;11.68;;;256.40;2252.80;;;;;;5010193;28;20524;-59
2022/11/23 00:54:05;;;;;;;35.85;17.77;;;256.30;2252.80;;;;;;5009998;28;20026;-59
2022/11/23 00:56:32;;;;;;;28.98;18.35;;;256.20;2252.80;;;;;;5009801;28;20388;-61
2022/11/23 00:59:00;;;;;;;20.50;15.48;;;256.20;2252.80;;;;;;5009940;28;20032;-61
2022/11/23 01:01:32;;;;;;;16.02;9.43;;;256.20;2252.80;;;;;;5009960;28;20465;-59
2022/11/23 01:04:00;;;;;;;47.80;26.77;;;256.30;2252.80;;;;;;5010006;28;20038;-61
2022/11/23 01:06:31;;;;;;;15.13;10.65;;;256.20;2252.80;;;;;;4991694;28;20030;-58
2022/11/23 01:09:00;;;;;;;21.80;13.95;;;256.20;2252.80;;;;;;5009814;28;20084;-59
2022/11/23 01:11:28;;;;;;;30.70;17.48;;;256.20;2252.80;;;;;;5009904;28;20112;-64
2022/11/23 01:13:54;;;;;;;35.53;24.20;;;256.10;2252.80;;;;;;4993592;28;20124;-58
2022/11/23 01:16:23;;;;;;;30.80;20.00;;;256.10;2252.80;;;;;;5013182;28;20069;-58
2022/11/23 01:19:00;;;;;;;34.42;21.40;;;256.10;2252.80;;;;;;5013196;28;20120;-59
2022/11/23 01:21:27;;;;;;;23.63;16.25;;;256.10;2252.80;;;;;;5013453;28;20025;-59
2022/11/23 01:23:53;;;;;;;18.65;8.65;;;256.00;2252.80;;;;;;5013227;28;20018;-60
2022/11/23 01:26:20;;;;;;;17.10;10.13;;;256.00;2252.80;;;;;;5013173;28;20022;-61
2022/11/23 01:28:46;;;;;;;25.13;14.82;;;256.00;2252.80;;;;;;5013103;28;20022;-63
2022/11/23 01:31:15;;;;;;;30.33;18.70;;;231.30;2252.80;;;;;;5012978;28;20048;-61
2022/11/23 01:33:41;;;;;;;22.30;14.80;;;231.30;2252.80;;;;;;5013034;28;20113;-61
2022/11/23 01:36:11;;;;;;;36.50;22.55;;;231.20;2252.80;;;;;;5012989;28;20025;-61
2022/11/23 01:38:37;;;;;;;45.97;28.55;;;231.30;2252.80;;;;;;5013126;28;20017;-59
2022/11/23 01:41:04;;;;;;;47.25;26.13;;;231.20;2252.80;;;;;;5012826;28;20097;-62
2022/11/23 01:43:30;;;;;;;39.03;22.73;;;231.20;2252.80;;;;;;5012535;28;20061;-59
2022/11/23 01:45:58;;;;;;;32.78;20.88;;;231.20;2252.80;;;;;;5012762;28;20025;-60
2022/11/23 01:48:33;;;;;;;27.60;17.80;;;231.10;2252.80;;;;;;5012637;28;20030;-60
2022/11/23 01:51:01;;;;;;;26.27;16.50;;;231.00;2252.80;;;;;;5012836;28;20041;-60
2022/11/23 01:53:28;;;;;;;28.98;18.70;;;230.90;2252.80;;;;;;5012681;28;20029;-60
2022/11/23 01:55:58;;;;;;;25.98;19.80;;;230.90;2252.80;;;;;;5012604;28;20100;-59
2022/11/23 01:58:25;;;;;;;23.27;15.88;;;230.90;2252.80;;;;;;5012434;28;20431;-59
2022/11/23 02:00:51;;;;;;;28.30;18.55;;;231.00;2252.80;;;;;;5012326;28;20026;-60
2022/11/23 02:03:17;;;;;;;143.70;83.93;;;231.00;2252.80;;;;;;5012624;28;20045;-60
2022/11/23 02:05:46;;;;;;;268.83;166.60;;;231.10;2252.80;;;;;;5012576;28;20112;-60
2022/11/23 02:08:15;;;;;;;59.40;40.50;;;231.20;2252.80;;;;;;5012424;28;20030;-59
2022/11/23 02:10:41;;;;;;;41.10;27.67;;;231.10;2252.80;;;;;;5012317;28;20022;-60
2022/11/23 02:13:10;;;;;;;32.88;19.65;;;231.10;2252.80;;;;;;5012279;28;20489;-59
2022/11/23 02:15:36;;;;;;;25.00;18.17;;;231.00;2252.80;;;;;;5012056;28;20116;-60
2022/11/23 02:18:04;;;;;;;43.63;27.50;;;231.00;2252.80;;;;;;5012083;28;20053;-60
2022/11/23 02:20:30;;;;;;;56.30;36.47;;;230.90;2252.80;;;;;;4994728;28;20412;-59
2022/11/23 02:23:26;;;;;;;53.97;34.05;;;231.00;2252.80;;;;;;5012271;28;20030;-59
2022/11/23 02:25:57;;;;;;;68.07;41.33;;;231.00;2252.80;;;;;;5010925;28;20026;-58
2022/11/23 02:28:32;;;;;;;74.18;48.97;;;231.10;2252.80;;;;;;5011885;28;20026;-60
2022/11/23 02:30:59;;;;;;;24.55;14.57;;;231.20;2252.80;;;;;;5012051;28;20053;-59
2022/11/23 02:33:25;;;;;;;56.95;35.45;;;231.20;2252.80;;;;;;5011899;28;20049;-59
2022/11/23 02:35:56;;;;;;;26.55;15.80;;;231.20;2252.80;;;;;;5011579;28;20026;-59
2022/11/23 02:38:25;;;;;;;28.70;17.05;;;231.30;2252.80;;;;;;5011880;28;20030;-59
2022/11/23 02:40:50;;;;;;;19.00;12.23;;;231.30;2252.80;;;;;;5011875;28;20292;-59
2022/11/23 02:43:16;;;;;;;10.32;7.97;;;256.00;2252.80;;;;;;5011972;28;20033;-59
2022/11/23 02:45:48;;;;;;;14.65;9.88;;;256.00;2252.80;;;;;;5011561;28;20100;-60
2022/11/23 02:48:14;;;;;;;17.13;11.98;;;256.00;2252.80;;;;;;5011535;28;20563;-62
2022/11/23 02:50:40;;;;;;;19.75;12.77;;;256.10;2252.80;;;;;;5011854;28;20101;-59
2022/11/23 02:53:06;;;;;;;34.00;21.70;;;256.00;2252.80;;;;;;5011521;28;20038;-59
2022/11/23 02:55:32;;;;;;;57.20;36.22;;;256.10;2252.80;;;;;;5011381;28;20026;-60
2022/11/23 02:57:57;;;;;;;47.33;30.50;;;256.00;2252.80;;;;;;5011614;28;20052;-59
2022/11/23 03:00:23;;;;;;;28.15;18.63;;;256.10;2252.80;;;;;;5011205;28;20030;-59
2022/11/23 03:02:49;;;;;;;14.43;9.85;;;256.20;2252.80;;;;;;5011357;28;20022;-59
2022/11/23 03:05:15;;;;;;;26.98;19.08;;;256.30;2252.80;;;;;;5011221;28;20026;-59
2022/11/23 03:07:40;;;;;;;30.63;24.63;;;256.20;2252.80;;;;;;5011381;28;20114;-59
2022/11/23 03:10:07;;;;;;;19.30;14.93;;;256.20;2252.80;;;;;;5011267;28;20029;-60
2022/11/23 03:12:32;;;;;;;20.30;16.23;;;256.20;2252.80;;;;;;5010907;28;20077;-60
2022/11/23 03:14:58;;;;;;;16.15;12.40;;;256.10;2252.80;;;;;;5011104;28;20054;-59
2022/11/23 03:17:25;;;;;;;16.27;11.90;;;256.20;2252.80;;;;;;5010753;28;20057;-59
2022/11/23 03:19:50;;;;;;;17.00;13.13;;;256.00;2252.80;;;;;;5011035;28;20037;-60
2022/11/23 03:22:16;;;;;;;13.85;12.13;;;256.00;2252.80;;;;;;5011063;28;20030;-59
2022/11/23 03:24:42;;;;;;;19.42;15.35;;;256.00;2252.80;;;;;;5010843;28;20028;-59
2022/11/23 03:27:08;;;;;;;22.30;13.70;;;256.00;2252.80;;;;;;5011036;28;20156;-58
2022/11/23 03:29:33;;;;;;;14.77;9.10;;;256.00;2252.80;;;;;;5010833;28;20014;-59
2022/11/23 03:31:59;;;;;;;14.35;9.95;;;231.30;2252.80;;;;;;5010978;28;20033;-58
2022/11/23 03:34:25;;;;;;;18.30;10.13;;;231.30;2252.80;;;;;;5010797;28;20030;-61
2022/11/23 03:36:50;;;;;;;47.08;26.05;;;231.30;2252.80;;;;;;5010656;28;20116;-60
2022/11/23 03:39:16;;;;;;;20.70;12.88;;;231.30;2252.80;;;;;;5010741;28;20029;-60
2022/11/23 03:41:42;;;;;;;20.70;13.50;;;231.20;2252.80;;;;;;5010718;28;20030;-59
2022/11/23 03:44:08;;;;;;;20.30;13.55;;;231.20;2252.80;;;;;;5010697;28;20037;-59
2022/11/23 03:46:33;;;;;;;24.00;16.08;;;231.10;2252.80;;;;;;5010532;28;20108;-59
2022/11/23 03:48:59;;;;;;;33.22;21.52;;;231.10;2252.80;;;;;;5010775;28;20420;-59
2022/11/23 03:51:24;;;;;;;34.90;21.30;;;231.10;2252.80;;;;;;5010385;28;20109;-60
2022/11/23 03:53:50;;;;;;;31.48;18.65;;;231.20;2252.80;;;;;;5010656;28;20088;-59
2022/11/23 03:56:16;;;;;;;35.30;21.05;;;231.20;2252.80;;;;;;5010528;28;20484;-59
2022/11/23 03:58:41;;;;;;;28.30;19.55;;;231.10;2252.80;;;;;;5010564;28;20468;-59
2022/11/23 04:01:07;;;;;;;23.60;16.20;;;231.10;2252.80;;;;;;5010383;28;20026;-58
2022/11/23 04:03:33;;;;;;;27.88;18.52;;;231.10;2252.80;;;;;;5010177;28;20030;-59
2022/11/23 04:05:59;;;;;;;26.33;15.05;;;231.00;2252.80;;;;;;5010481;28;20034;-58
2022/11/23 04:08:25;;;;;;;14.13;9.10;;;230.90;2252.80;;;;;;5010310;28;20037;-59
2022/11/23 04:10:51;;;;;;;16.98;9.38;;;230.80;2252.80;;;;;;4992587;28;20030;-59
2022/11/23 04:13:16;;;;;;;13.63;8.55;;;230.60;2252.80;;;;;;5010344;28;20503;-59
2022/11/23 04:15:42;;;;;;;18.67;10.15;;;230.70;2252.80;;;;;;5009976;28;20069;-59
2022/11/23 04:18:08;;;;;;;25.60;14.85;;;230.90;2252.80;;;;;;5010126;28;20049;-59
2022/11/23 04:20:34;;;;;;;67.75;39.75;;;231.00;2252.80;;;;;;5010194;28;20036;-59
2022/11/23 04:22:59;;;;;;;49.05;29.80;;;231.20;2252.80;;;;;;5010366;28;20069;-59
2022/11/23 04:25:25;;;;;;;10.20;6.63;;;231.30;2252.80;;;;;;5010229;28;20061;-60
2022/11/23 04:27:50;;;;;;;40.05;24.50;;;231.30;2252.80;;;;;;5010194;28;20079;-59
2022/11/23 04:30:17;;;;;;;46.20;29.95;;;231.30;2252.80;;;;;;5010346;28;20469;-59
2022/11/23 04:32:45;;;;;;;17.23;11.10;;;231.30;2252.80;;;;;;5010127;28;20034;-59
2022/11/23 04:35:11;;;;;;;70.80;42.08;;;231.20;2252.80;;;;;;5010109;28;20380;-59
2022/11/23 04:37:37;;;;;;;35.47;21.65;;;231.20;2252.80;;;;;;5010225;28;20097;-59
2022/11/23 04:40:03;;;;;;;24.20;13.55;;;231.10;2252.80;;;;;;5010008;28;20465;-60
2022/11/23 04:42:28;;;;;;;17.75;11.02;;;231.00;2252.80;;;;;;5010176;28;20049;-59
2022/11/23 04:44:56;;;;;;;14.57;9.07;;;230.90;2252.80;;;;;;5010020;28;20018;-59
2022/11/23 04:47:22;;;;;;;23.35;15.10;;;230.60;2252.80;;;;;;5009658;28;20499;-59
2022/11/23 04:49:48;;;;;;;19.15;11.98;;;230.60;2252.80;;;;;;5012975;28;20025;-59
2022/11/23 04:52:13;;;;;;;27.88;15.95;;;230.60;2252.80;;;;;;5013649;28;20041;-59
2022/11/23 04:54:39;;;;;;;47.85;29.45;;;230.70;2252.80;;;;;;5013948;28;20036;-58
2022/11/23 04:57:05;;;;;;;63.95;43.97;;;230.70;2252.80;;;;;;5013574;28;20022;-59
2022/11/23 04:59:30;;;;;;;28.58;16.60;;;230.60;2252.80;;;;;;5013935;28;20561;-59
2022/11/23 05:01:56;;;;;;;26.15;17.60;;;230.60;2252.80;;;;;;5013714;28;20487;-59
2022/11/23 05:04:22;;;;;;;27.95;17.00;;;230.60;2252.80;;;;;;5013507;28;20030;-59
2022/11/23 05:06:47;;;;;;;35.30;20.15;;;230.60;2252.80;;;;;;5013743;28;20030;-59
2022/11/23 05:09:13;;;;;;;28.73;18.73;;;230.60;2252.80;;;;;;5013582;28;20073;-59
2022/11/23 05:11:39;;;;;;;22.75;16.48;;;230.70;2252.80;;;;;;5013339;28;20136;-59
2022/11/23 05:14:04;;;;;;;26.05;18.35;;;230.80;2252.80;;;;;;5013221;28;20038;-59
2022/11/23 05:16:30;;;;;;;22.05;16.52;;;230.80;2252.80;;;;;;5013068;28;20046;-58
2022/11/23 05:18:56;;;;;;;19.80;15.05;;;230.90;2252.80;;;;;;5013618;28;20038;-60
2022/11/23 05:21:21;;;;;;;12.80;8.98;;;230.90;2252.80;;;;;;5013323;28;20026;-62
2022/11/23 05:23:47;;;;;;;25.67;15.90;;;231.10;2252.80;;;;;;5013366;28;20100;-60
2022/11/23 05:26:13;;;;;;;55.03;34.22;;;231.20;2252.80;;;;;;5013162;28;20026;-59
2022/11/23 05:28:38;;;;;;;33.85;20.95;;;231.20;2252.80;;;;;;5013103;28;20030;-59
2022/11/23 05:31:04;;;;;;;52.40;34.17;;;231.20;2252.80;;;;;;5012989;28;20365;-59
2022/11/23 05:33:30;;;;;;;49.85;33.85;;;231.10;2252.80;;;;;;5013106;28;20030;-59
2022/11/23 05:35:56;;;;;;;51.05;29.92;;;230.90;2252.80;;;;;;5013183;28;20053;-59
2022/11/23 05:38:21;;;;;;;66.60;39.67;;;230.90;2252.80;;;;;;5013010;28;20423;-59
2022/11/23 05:40:47;;;;;;;50.65;32.45;;;230.70;2252.80;;;;;;5013043;28;20018;-59
2022/11/23 05:43:13;;;;;;;54.17;33.22;;;230.80;2252.80;;;;;;5012594;28;20025;-59
2022/11/23 05:45:38;;;;;;;31.92;20.23;;;230.90;2252.80;;;;;;5012874;28;20030;-59
2022/11/23 05:48:04;;;;;;;55.90;36.20;;;230.90;2252.80;;;;;;5012718;28;20061;-59
2022/11/23 05:50:30;;;;;;;32.67;22.92;;;230.90;2252.80;;;;;;5012694;28;20491;-58
2022/11/23 05:52:57;;;;;;;41.50;26.33;;;230.90;2252.80;;;;;;5012742;28;20034;-58
2022/11/23 05:55:23;;;;;;;38.17;24.00;;;230.90;2252.80;;;;;;5012652;28;20045;-59
2022/11/23 05:57:49;;;;;;;41.35;27.52;;;231.00;2252.80;;;;;;5012614;28;20480;-59
2022/11/23 06:00:15;;;;;;;61.95;40.47;;;231.00;2252.80;;;;;;5012470;28;20026;-59
2022/11/23 06:02:41;;;;;;;32.10;18.38;;;231.20;2252.80;;;;;;5012725;28;20022;-60
2022/11/23 06:05:07;;;;;;;39.45;23.95;;;231.20;2252.80;;;;;;5012708;28;20109;-59
2022/11/23 06:07:34;;;;;;;46.95;29.30;;;231.20;2252.80;;;;;;5012402;28;20539;-60
2022/11/23 06:10:00;;;;;;;24.05;15.85;;;256.00;2252.80;;;;;;5012404;28;20029;-59
2022/11/23 06:12:27;;;;;;;29.95;21.30;;;231.30;2252.80;;;;;;5012411;28;20068;-64
2022/11/23 06:14:53;;;;;;;20.27;13.55;;;256.00;2252.80;;;;;;5011794;28;20021;-60
2022/11/23 06:17:18;;;;;;;38.67;22.42;;;256.20;2252.80;;;;;;5012165;28;20180;-57
2022/11/23 06:19:44;;;;;;;33.15;21.13;;;256.20;2252.80;;;;;;5012151;28;20507;-60
2022/11/23 06:22:10;;;;;;;25.35;16.17;;;256.20;2252.80;;;;;;5012405;28;20135;-59
2022/11/23 06:24:36;;;;;;;24.10;16.02;;;256.20;2252.80;;;;;;5012054;28;20026;-60
2022/11/23 06:27:02;;;;;;;21.63;15.60;;;256.20;2252.80;;;;;;5011963;28;20030;-60
2022/11/23 06:29:27;;;;;;;32.45;20.17;;;256.30;2252.80;;;;;;5012077;28;20102;-60
2022/11/23 06:31:53;;;;;;;43.78;27.58;;;256.20;2252.80;;;;;;5011826;28;20050;-60
2022/11/23 06:34:19;;;;;;;37.05;24.65;;;256.20;2252.80;;;;;;5012234;28;20542;-59
2022/11/23 06:36:45;;;;;;;37.13;26.25;;;256.20;2252.80;;;;;;5012033;28;20021;-59
2022/11/23 06:39:12;;;;;;;29.98;22.63;;;256.30;2252.80;;;;;;5012138;28;20385;-59
2022/11/23 06:41:38;;;;;;;32.70;23.67;;;256.20;2252.80;;;;;;5012056;28;20030;-59
2022/11/23 06:44:04;;;;;;;42.47;24.90;;;256.30;2252.80;;;;;;5011505;28;20022;-60
2022/11/23 06:46:31;;;;;;;41.17;25.10;;;256.40;2252.80;;;;;;5011600;28;20030;-60
2022/11/23 06:48:57;;;;;;;47.20;30.38;;;256.40;2252.80;;;;;;5011863;28;20033;-62
2022/11/23 06:51:22;;;;;;;27.35;18.02;;;256.40;2252.80;;;;;;5011602;28;20477;-62
2022/11/23 06:53:48;;;;;;;25.55;14.68;;;256.50;2252.80;;;;;;5011603;28;20476;-60
2022/11/23 06:56:14;;;;;;;24.58;14.27;;;256.40;2252.80;;;;;;5011583;28;20030;-60
2022/11/23 06:58:40;;;;;;;41.15;26.85;;;256.50;2252.80;;;;;;5011628;28;20030;-59
2022/11/23 07:01:07;;;;;;;99.53;64.72;;;256.50;2252.80;;;;;;5011220;28;20377;-60
2022/11/23 07:03:34;;;;;;;50.47;35.67;;;256.50;2252.80;;;;;;5011354;28;20076;-60
2022/11/23 07:06:05;;;;;;;34.70;20.73;;;256.60;2252.80;;;;;;5011297;28;20109;-60
2022/11/23 07:08:30;;;;;;;34.47;19.05;;;256.70;2252.80;;;;;;5011456;28;20061;-60
2022/11/23 07:11:01;;;;;;;36.67;24.70;;;256.60;2252.80;;;;;;5011012;28;20057;-60
2022/11/23 07:13:27;;;;;;;67.55;54.78;;;256.70;2252.80;;;;;;5011121;28;20143;-60
2022/11/23 07:15:53;;;;;;;70.75;44.15;;;256.70;2252.80;;;;;;5010663;28;20049;-62
2022/11/23 07:18:18;;;;;;;39.97;27.40;;;256.80;2252.80;;;;;;5011358;28;20120;-60
2022/11/23 07:20:44;;;;;;;39.53;28.48;;;256.70;2252.80;;;;;;5011199;28;20105;-62
2022/11/23 07:23:10;;;;;;;42.88;30.13;;;256.70;2252.80;;;;;;5011451;28;20056;-60
2022/11/23 07:25:37;;;;;;;32.38;23.83;;;256.80;2252.80;;;;;;5010968;28;20022;-60
2022/11/23 07:28:04;;;;;;;68.80;50.13;;;281.70;2278.40;;;;;;5010757;28;20076;-60
2022/11/23 07:30:31;;;;;;;49.78;36.55;;;281.70;2278.40;;;;;;5011104;28;20092;-60
2022/11/23 07:33:02;;;;;;;56.17;36.17;;;282.00;2278.40;;;;;;5010868;28;20100;-59
2022/11/23 07:35:28;;;;;;;50.10;34.40;;;282.20;2278.40;;;;;;5011166;28;20021;-59
2022/11/23 07:37:54;;;;;;;101.20;65.80;;;282.20;2278.40;;;;;;5010888;28;20104;-60
2022/11/23 07:40:19;;;;;;;66.72;47.45;;;282.40;2278.40;;;;;;5010863;28;20372;-60
2022/11/23 07:42:45;;;;;;;49.60;34.47;;;282.50;2278.40;;;;;;5010573;28;20076;-60
2022/11/23 07:45:11;;;;;;;35.53;26.20;;;282.40;2278.40;;;;;;5010450;28;20026;-60
2022/11/23 07:47:38;;;;;;;56.33;37.97;;;282.40;2278.40;;;;;;5010900;28;20034;-60
2022/11/23 07:50:05;;;;;;;45.83;29.50;;;282.20;2278.40;;;;;;5010493;28;20055;-60
2022/11/23 07:52:31;;;;;;;64.93;41.53;;;282.10;2278.40;;;;;;5010576;28;20025;-56
2022/11/23 07:54:59;;;;;;;65.30;42.17;;;282.00;2278.40;;;;;;5010601;28;20499;-56
2022/11/23 07:57:24;;;;;;;59.53;39.65;;;281.90;2278.40;;;;;;5010244;28;20037;-55
2022/11/23 07:59:50;;;;;;;89.32;56.45;;;281.80;2278.40;;;;;;5010458;28;20026;-56
2022/11/23 08:02:16;;;;;;;73.78;50.40;;;281.80;2278.40;;;;;;5010533;28;20037;-57
2022/11/23 08:04:41;;;;;;;70.40;46.03;;;281.60;2278.40;;;;;;5009136;28;20033;-56
2022/11/23 08:07:07;;;;;;;94.43;56.03;;;281.70;2278.40;;;;;;4990956;28;20030;-57
2022/11/23 08:09:33;;;;;;;106.22;61.35;;;256.90;2252.80;;;;;;4990597;28;20029;-55
2022/11/23 08:11:58;;;;;;;105.03;71.75;;;256.90;2252.80;;;;;;4990836;28;20114;-56
2022/11/23 08:14:24;;;;;;;180.35;120.13;;;281.70;2278.40;;;;;;4990350;28;20373;-55
2022/11/23 08:16:51;;;;;;;156.60;101.13;;;281.70;2278.40;;;;;;5004620;28;20057;-55
2022/11/23 08:19:17;;;;;;;109.50;75.95;;;281.90;2278.40;;;;;;5010541;28;20084;-58
2022/11/23 08:21:43;;;;;;;102.88;70.35;;;281.90;2278.40;;;;;;5010151;28;20461;-56
2022/11/23 08:24:10;;;;;;;91.55;63.92;;;282.00;2278.40;;;;;;5012211;28;20033;-55
2022/11/23 08:26:35;;;;;;;97.53;64.93;;;282.10;2278.40;;;;;;5014344;28;20084;-55
2022/11/23 08:29:01;;;;;;;91.35;62.25;;;282.30;2278.40;;;;;;5013878;28;20022;-55
2022/11/23 08:31:27;;;;;;;87.55;61.72;;;282.40;2278.40;;;;;;5014526;28;20030;-55
2022/11/23 08:33:53;;;;;;;78.35;53.00;;;282.10;2278.40;;;;;;5013948;28;20472;-55
2022/11/23 08:36:19;;;;;;;74.40;55.30;;;282.10;2278.40;;;;;;5011817;28;20037;-55
2022/11/23 08:38:44;;;;;;;49.58;34.47;;;282.00;2278.40;;;;;;5012304;28;20109;-55
2022/11/23 08:41:10;;;;;;;51.05;34.17;;;282.20;2278.40;;;;;;5012552;28;20117;-55
2022/11/23 08:43:36;;;;;;;78.78;47.40;;;282.20;2278.40;;;;;;5012417;28;20026;-57
2022/11/23 08:46:03;;;;;;;64.50;45.47;;;282.20;2278.40;;;;;;5012091;28;20053;-58
2022/11/23 08:48:29;;;;;;;54.47;37.67;;;282.10;2278.40;;;;;;5011999;28;20030;-55
2022/11/23 08:50:58;;;;;;;29.45;22.17;;;282.10;2278.40;;;;;;5012252;28;20030;-56
2022/11/23 08:53:24;;;;;;;23.10;16.23;;;281.90;2278.40;;;;;;5012202;28;20034;-55
2022/11/23 08:55:49;;;;;;;18.77;14.20;;;281.70;2278.40;;;;;;5012281;28;20112;-56
2022/11/23 08:58:15;;;;;;;18.98;16.33;;;281.80;2278.40;;;;;;5012035;28;20030;-56
2022/11/23 09:00:41;;;;;;;16.60;12.50;;;282.00;2278.40;;;;;;5011615;28;20084;-56
2022/11/23 09:03:06;;;;;;;16.25;11.25;;;282.10;2278.40;;;;;;5011822;28;20025;-55
2022/11/23 09:05:32;;;;;;;15.27;11.75;;;282.10;2278.40;;;;;;5012119;28;20665;-56
2022/11/23 09:08:01;;;;;;;13.45;9.00;;;282.10;2278.40;;;;;;5012098;28;20026;-55
2022/11/23 09:10:27;;;;;;;13.98;9.75;;;282.00;2278.40;;;;;;5005816;28;20034;-60
2022/11/23 09:12:53;;;;;;;16.10;9.18;;;282.00;2278.40;;;;;;5001052;28;20081;-56
2022/11/23 09:15:19;;;;;;;14.77;9.80;;;282.00;2278.40;;;;;;5003608;28;20061;-56
2022/11/23 09:17:44;;;;;;;17.38;10.15;;;282.00;2278.40;;;;;;5011366;28;20502;-57
2022/11/23 09:20:11;;;;;;;14.38;11.15;;;282.00;2278.40;;;;;;5002393;28;20037;-56
2022/11/23 09:22:37;;;;;;;15.27;10.63;;;282.00;2278.40;;;;;;4997916;28;20030;-55
2022/11/23 09:25:03;;;;;;;14.23;11.35;;;282.00;2278.40;;;;;;5009510;28;20113;-55
2022/11/23 09:27:29;;;;;;;18.20;11.70;;;282.20;2278.40;;;;;;5006956;28;20113;-55
2022/11/23 09:29:55;;;;;;;26.35;22.38;;;282.00;2278.40;;;;;;4995552;28;20469;-55
2022/11/23 09:32:20;;;;;;;18.00;15.68;;;282.00;2278.40;;;;;;4995694;28;20077;-56
2022/11/23 09:34:46;;;;;;;18.33;12.98;;;282.20;2278.40;;;;;;4991644;28;20362;-56
2022/11/23 09:37:13;;;;;;;14.27;10.68;;;282.40;2278.40;;;;;;4993303;28;20484;-55
2022/11/23 09:39:38;;;;;;;14.30;11.38;;;282.50;2278.40;;;;;;5000372;28;20091;-55
2022/11/23 09:42:24;;;;;;;18.45;11.68;;;282.50;2278.40;;;;;;5003051;28;20429;-58
2022/11/23 09:45:05;;;;;;;12.75;10.88;;;282.40;2278.40;;;;;;4931537;29;20140;-56
2022/11/23 09:48:02;;;;;;;15.63;11.52;;;282.50;2278.40;;;;;;4930884;29;20558;-56
2022/11/23 09:50:47;;;;;;;15.23;11.60;;;307.20;2304.00;;;;;;4932384;29;20044;-54
2022/11/23 09:53:43;;;;;;;14.02;12.20;;;307.30;2304.00;;;;;;4931646;29;20450;-57
2022/11/23 09:56:23;;;;;;;14.10;11.27;;;307.30;2304.00;;;;;;4930578;29;20042;-58
2022/11/23 09:58:55;;;;;;;14.02;10.85;;;307.70;2304.00;;;;;;4929680;29;20047;-56
2022/11/23 10:01:22;;;;;;;15.13;10.43;;;307.70;2304.00;;;;;;4931239;29;21087;-58
2022/11/23 10:03:47;;;;;;;13.23;10.23;;;308.00;2304.00;;;;;;4931397;29;20486;-54
2022/11/23 10:06:19;;;;;;;12.45;10.00;;;308.10;2304.00;;;;;;4932002;29;20035;-57
2022/11/23 10:09:15;;;;;;;13.32;10.13;;;332.80;2329.60;;;;;;4929993;29;20115;-57
2022/11/23 10:12:05;;;;;;;12.73;11.10;;;332.80;2329.60;;;;;;4931572;29;20027;-56
2022/11/23 10:14:41;;;;;;;12.63;10.23;;;308.00;2304.00;;;;;;4928821;29;20082;-57
2022/11/23 10:17:12;;;;;;;15.68;10.75;;;307.80;2304.00;;;;;;4931179;29;20043;-58
2022/11/23 10:20:12;;;;;;;12.27;9.23;;;308.00;2304.00;;;;;;4930047;29;20514;-58
2022/11/23 10:22:51;;;;;;;14.73;10.13;;;332.80;2329.60;;;;;;4956262;28;20089;-55
2022/11/23 10:25:21;;;;;;;10.60;9.18;;;333.00;2329.60;;;;;;4960403;28;20090;-56
2022/11/23 10:27:49;;;;;;;11.02;9.50;;;333.20;2329.60;;;;;;4959979;28;20035;-58
2022/11/23 10:30:18;;;;;;;14.55;10.80;;;333.20;2329.60;;;;;;4959726;28;20027;-57
2022/11/23 10:33:09;;;;;;;13.27;10.27;;;333.40;2329.60;;;;;;4975401;28;20125;-57
2022/11/23 10:35:37;;;;;;;14.95;9.75;;;333.40;2329.60;;;;;;5002500;28;20477;-57
2022/11/23 10:38:25;;;;;;;13.40;9.75;;;333.50;2329.60;;;;;;5000936;28;20022;-58
2022/11/23 10:41:08;;;;;;;38.08;28.52;;;333.60;2329.60;;;;;;5011717;28;20088;-57
2022/11/23 10:43:42;;;;;;;36.63;26.27;;;333.70;2329.60;;;;;;5011562;28;20029;-58
2022/11/23 10:46:26;;;;;;;10.75;8.98;;;358.40;2329.60;;;;;;5010930;28;20064;-57
2022/11/23 10:48:53;;;;;;;16.88;12.57;;;358.60;2329.60;;;;;;5006312;28;20068;-57
2022/11/23 10:51:32;;;;;;;41.70;32.58;;;358.70;2329.60;;;;;;4992285;28;20026;-57
2022/11/23 10:54:17;;;;;;;18.15;16.15;;;358.70;2329.60;;;;;;4992168;28;20041;-57
2022/11/23 10:56:48;;;;;;;11.77;9.98;;;358.70;2329.60;;;;;;4991929;28;20473;-57
2022/11/23 10:59:28;;;;;;;20.98;18.55;;;358.50;2329.60;;;;;;4991948;28;20027;-56
2022/11/23 11:02:14;;;;;;;23.83;20.10;;;358.50;2329.60;;;;;;4991915;28;20481;-56
2022/11/23 11:04:40;;;;;;;16.75;13.13;;;358.50;2329.60;;;;;;4991974;28;20023;-56
2022/11/23 11:07:21;;;;;;;118.80;75.47;;;358.60;2329.60;;;;;;4991818;28;20081;-56
2022/11/23 11:09:58;;;;;;;24.58;17.67;;;358.70;2329.60;;;;;;4991696;28;20033;-56
2022/11/23 11:12:26;;;;;;;35.08;31.25;;;358.80;2329.60;;;;;;4991633;28;20061;-56
2022/11/23 11:14:56;;;;;;;36.38;25.85;;;359.10;2329.60;;;;;;4991704;28;20457;-56
2022/11/23 11:17:31;;;;;;;23.73;17.30;;;359.10;2329.60;;;;;;5009637;28;20042;-57
2022/11/23 11:19:57;;;;;;;17.17;15.23;;;359.00;2329.60;;;;;;5011523;28;20038;-56
2022/11/23 11:22:31;;;;;;;14.23;12.73;;;359.00;2329.60;;;;;;5011055;28;20060;-56
2022/11/23 11:24:56;;;;;;;28.02;25.02;;;358.60;2329.60;;;;;;5011265;28;20105;-56
2022/11/23 11:27:24;;;;;;;15.73;13.32;;;358.50;2329.60;;;;;;5010936;28;20471;-56
2022/11/23 11:29:53;;;;;;;29.85;25.23;;;333.40;2329.60;;;;;;5010918;28;20117;-56
2022/11/23 11:32:25;;;;;;;17.70;14.63;;;333.40;2329.60;;;;;;5011314;28;20029;-56
2022/11/23 11:35:16;;;;;;;24.20;16.17;;;333.40;2329.60;;;;;;5010921;28;20465;-56
2022/11/23 11:37:44;;;;;;;28.38;20.33;;;333.20;2329.60;;;;;;5010840;28;20129;-57
2022/11/23 11:40:21;;;;;;;27.98;22.15;;;333.10;2329.60;;;;;;5010918;28;20032;-57
2022/11/23 11:42:58;;;;;;;28.70;21.77;;;332.80;2329.60;;;;;;5011027;28;20026;-56
2022/11/23 11:45:35;;;;;;;26.65;21.90;;;332.90;2329.60;;;;;;5010773;28;20033;-56
2022/11/23 11:48:11;;;;;;;26.65;22.17;;;332.80;2329.60;;;;;;5010996;28;20763;-56
2022/11/23 11:51:19;;;;;;;27.00;19.45;;;332.80;2329.60;;;;;;5010776;28;20029;-55
2022/11/23 11:54:12;;;;;;;36.00;26.95;;;332.90;2329.60;;;;;;4911969;29;20043;-56
2022/11/23 11:56:53;;;;;;;43.88;32.03;;;332.80;2329.60;;;;;;4874619;29;20037;-56
2022/11/23 11:59:27;;;;;;;42.67;30.45;;;332.90;2329.60;;;;;;4874298;29;20041;-56
2022/11/23 12:02:01;;;;;;;31.60;25.30;;;332.80;2329.60;;;;;;4874272;29;20037;-56
2022/11/23 12:04:34;;;;;;;31.08;25.15;;;332.80;2329.60;;;;;;4874560;29;20047;-56